nws-alerts: Checking more than four warning/county codes can delay the loading of your pages. You should use a cron job to get the data.
EllijayWeather Station Historical Data
 
Daily Summary for July 23, 2019 Units:  English    Metric   Both
Daily Weekly Monthly Yearly Custom
  Current: High: Low: Average:
Temperature: 71.4 °F 72.9 °F 70.5 °F 71.2 °F
Dew Point: 70.9 °F 71.6 °F 70.2 °F 70.6 °F
Humidity: 98% 99% 94% 98%
Wind Speed: 0mph 0.9mph 0mph 0mph
Wind Gust: 0mph 4mph - -
WindCalm - - NNE
Pressure: 29.90 in 29.93 in 29.88 in -
Precipitation: 0.82 in      
Historical Graphs
 
 
Tabular Data for July 23, 2019
Time Temperature Dew Point Pressure Wind Wind Speed Wind Gust Humidity Rainfall Rate (Hourly) solar
00:04 72.7 °F 71.2 °F 29.92 in Calm     95% 0 in meteobridge W/m2
00:09 72.7 °F 71.4 °F 29.93 in Calm   1 mph 96% 0 in meteobridge W/m2
00:14 72.9 °F 71.6 °F 29.93 in Calm     96% 0 in meteobridge W/m2
00:19 72.9 °F 71.4 °F 29.93 in Calm     95% 0 in meteobridge W/m2
00:24 72.9 °F 71.4 °F 29.93 in Calm   2 mph 95% 0 in meteobridge W/m2
00:29 72.9 °F 71.4 °F 29.93 in Calm     95% 0 in meteobridge W/m2
00:34 72.9 °F 71.1 °F 29.93 in Calm     94% 0 in meteobridge W/m2
00:39 72.7 °F 70.9 °F 29.93 in Calm   4 mph 94% 0 in meteobridge W/m2
00:44 72.7 °F 71.2 °F 29.93 in Calm     95% 0.03 in meteobridge W/m2
00:49 72.5 °F 71.1 °F 29.92 in NNE 0.9 mph 1 mph 95% 0.03 in meteobridge W/m2
00:54 72.3 °F 70.9 °F 29.92 in Calm     95% 0.03 in meteobridge W/m2
00:59 72.1 °F 70.7 °F 29.92 in Calm     95% 0.03 in meteobridge W/m2
01:04 72.1 °F 70.9 °F 29.91 in Calm     96% 0.03 in meteobridge W/m2
01:09 72 °F 70.7 °F 29.91 in Calm     96% 0.03 in meteobridge W/m2
01:14 71.8 °F 70.5 °F 29.91 in Calm     96% 0.03 in meteobridge W/m2
01:19 71.8 °F 70.5 °F 29.91 in Calm     96% 0.03 in meteobridge W/m2
01:24 71.8 °F 70.9 °F 29.91 in Calm     97% 0.07 in meteobridge W/m2
01:29 71.8 °F 70.9 °F 29.91 in Calm     97% 0.1 in meteobridge W/m2
01:34 71.6 °F 70.7 °F 29.91 in Calm     97% 0.12 in meteobridge W/m2
01:39 71.4 °F 70.5 °F 29.90 in Calm     97% 0.12 in meteobridge W/m2
01:44 71.4 °F 70.9 °F 29.91 in Calm     98% 0.11 in meteobridge W/m2
01:49 71.4 °F 70.9 °F 29.91 in Calm     98% 0.17 in meteobridge W/m2
01:54 71.4 °F 70.9 °F 29.90 in Calm     98% 0.26 in meteobridge W/m2
01:59 71.4 °F 70.9 °F 29.90 in Calm     98% 0.32 in meteobridge W/m2
02:04 71.4 °F 70.9 °F 29.90 in Calm     98% 0.34 in meteobridge W/m2
02:09 71.4 °F 70.9 °F 29.90 in Calm     98% 0.36 in meteobridge W/m2
02:14 71.4 °F 70.9 °F 29.90 in Calm     98% 0.38 in meteobridge W/m2
02:19 71.4 °F 70.9 °F 29.90 in Calm     98% 0.39 in meteobridge W/m2
02:24 71.4 °F 70.9 °F 29.90 in Calm     98% 0.42 in meteobridge W/m2
02:29 71.4 °F 70.9 °F 29.90 in Calm     98% 0.46 in meteobridge W/m2
02:34 71.2 °F 70.7 °F 29.90 in Calm     98% 0.46 in meteobridge W/m2
02:39 71.2 °F 70.7 °F 29.90 in Calm     98% 0.49 in meteobridge W/m2
02:44 71.1 °F 70.5 °F 29.90 in Calm   1 mph 98% 0.5 in meteobridge W/m2
02:49 71.1 °F 70.5 °F 29.90 in Calm     98% 0.46 in meteobridge W/m2
02:54 71.1 °F 70.5 °F 29.90 in Calm     98% 0.39 in meteobridge W/m2
02:59 71.1 °F 70.5 °F 29.90 in Calm     98% 0.35 in meteobridge W/m2
03:04 71.1 °F 70.5 °F 29.89 in Calm     98% 0.34 in meteobridge W/m2
03:09 70.9 °F 70.3 °F 29.89 in Calm     98% 0.33 in meteobridge W/m2
03:14 70.9 °F 70.3 °F 29.89 in Calm     98% 0.31 in meteobridge W/m2
03:19 70.9 °F 70.3 °F 29.89 in Calm     98% 0.29 in meteobridge W/m2
03:24 70.9 °F 70.3 °F 29.89 in Calm     98% 0.23 in meteobridge W/m2
03:29 70.9 °F 70.3 °F 29.89 in Calm     98% 0.15 in meteobridge W/m2
03:34 70.9 °F 70.3 °F 29.88 in Calm     98% 0.14 in meteobridge W/m2
03:39 70.9 °F 70.3 °F 29.88 in Calm     98% 0.12 in meteobridge W/m2
03:44 70.9 °F 70.3 °F 29.88 in Calm     98% 0.09 in meteobridge W/m2
03:49 70.9 °F 70.3 °F 29.88 in Calm     98% 0.07 in meteobridge W/m2
03:54 70.9 °F 70.5 °F 29.89 in Calm     99% 0.05 in meteobridge W/m2
03:59 70.9 °F 70.3 °F 29.88 in Calm     98% 0.03 in meteobridge W/m2
04:04 70.9 °F 70.3 °F 29.88 in Calm     98% 0.02 in meteobridge W/m2
04:09 70.7 °F 70.2 °F 29.88 in Calm     98% 0.01 in meteobridge W/m2
04:14 70.7 °F 70.2 °F 29.88 in Calm     98% 0.01 in meteobridge W/m2
04:19 70.7 °F 70.2 °F 29.88 in Calm     98% 0.01 in meteobridge W/m2
04:24 70.7 °F 70.3 °F 29.88 in Calm     99% 0.01 in meteobridge W/m2
04:29 70.7 °F 70.3 °F 29.88 in Calm     99% 0.01 in meteobridge W/m2
04:34 70.7 °F 70.3 °F 29.88 in Calm     99% 0 in meteobridge W/m2
04:39 70.7 °F 70.3 °F 29.88 in Calm     99% 0 in meteobridge W/m2
04:44 70.7 °F 70.3 °F 29.88 in Calm     99% 0 in meteobridge W/m2
04:49 70.7 °F 70.3 °F 29.88 in Calm     99% 0 in meteobridge W/m2
04:54 70.7 °F 70.3 °F 29.88 in Calm     99% 0 in meteobridge W/m2
04:59 70.7 °F 70.3 °F 29.88 in Calm     99% 0 in meteobridge W/m2
05:04 70.5 °F 70.2 °F 29.88 in Calm     99% 0 in meteobridge W/m2
05:09 70.7 °F 70.3 °F 29.88 in Calm     99% 0 in meteobridge W/m2
05:14 70.7 °F 70.3 °F 29.88 in Calm     99% 0 in meteobridge W/m2
05:19 70.5 °F 70.2 °F 29.88 in Calm     99% 0 in meteobridge W/m2
05:24 70.7 °F 70.3 °F 29.88 in Calm     99% 0 in meteobridge W/m2
05:29 70.5 °F 70.2 °F 29.88 in Calm     99% 0 in meteobridge W/m2
05:34 70.5 °F 70.2 °F 29.88 in Calm     99% 0.01 in meteobridge W/m2
05:39 70.5 °F 70.2 °F 29.88 in Calm     99% 0.01 in meteobridge W/m2
05:44 70.5 °F 70.2 °F 29.88 in Calm     99% 0.01 in meteobridge W/m2
05:49 70.7 °F 70.3 °F 29.88 in Calm     99% 0.01 in meteobridge W/m2
05:54 70.5 °F 70.2 °F 29.88 in Calm     99% 0.01 in meteobridge W/m2
05:59 70.5 °F 70.2 °F 29.88 in Calm     99% 0.01 in meteobridge W/m2
06:04 70.5 °F 70.2 °F 29.88 in Calm     99% 0.01 in meteobridge W/m2
06:09 70.5 °F 70.2 °F 29.88 in Calm     99% 0.01 in meteobridge W/m2
06:14 70.5 °F 70.2 °F 29.89 in Calm     99% 0.01 in meteobridge W/m2
06:19 70.9 °F 70.5 °F 29.89 in Calm     99% 0.01 in meteobridge W/m2
06:24 70.7 °F 70.3 °F 29.89 in Calm     99% 0.01 in meteobridge W/m2
06:29 70.7 °F 70.3 °F 29.89 in Calm     99% 0.01 in meteobridge W/m2
06:34 70.7 °F 70.3 °F 29.89 in Calm     99% 0 in meteobridge W/m2
06:39 70.9 °F 70.5 °F 29.89 in Calm     99% 0 in meteobridge W/m2
06:44 70.7 °F 70.3 °F 29.89 in Calm     99% 0.01 in meteobridge W/m2
06:49 70.7 °F 70.3 °F 29.89 in Calm     99% 0.01 in meteobridge W/m2
06:54 70.7 °F 70.3 °F 29.89 in Calm     99% 0.01 in meteobridge W/m2
06:59 70.9 °F 70.5 °F 29.89 in Calm     99% 0.01 in meteobridge W/m2
07:04 70.9 °F 70.5 °F 29.89 in Calm     99% 0.01 in meteobridge W/m2
07:09 70.9 °F 70.5 °F 29.89 in Calm     99% 0.01 in meteobridge W/m2
07:14 70.9 °F 70.5 °F 29.89 in Calm     99% 0.01 in meteobridge W/m2
07:19 70.9 °F 70.5 °F 29.89 in Calm     99% 0.01 in meteobridge W/m2
07:24 70.9 °F 70.5 °F 29.89 in Calm     99% 0.01 in meteobridge W/m2
07:29 70.9 °F 70.5 °F 29.90 in Calm     99% 0.01 in meteobridge W/m2
07:34 71.1 °F 70.7 °F 29.90 in Calm     99% 0.01 in meteobridge W/m2
07:39 71.1 °F 70.7 °F 29.90 in Calm     99% 0.02 in meteobridge W/m2
07:44 71.1 °F 70.7 °F 29.89 in Calm     99% 0.04 in meteobridge W/m2
07:49 71.1 °F 70.7 °F 29.89 in Calm     99% 0.04 in meteobridge W/m2
07:54 71.1 °F 70.7 °F 29.89 in Calm     99% 0.04 in meteobridge W/m2
07:59 71.1 °F 70.7 °F 29.90 in Calm     99% 0.04 in meteobridge W/m2
08:04 71.1 °F 70.7 °F 29.90 in Calm     99% 0.04 in meteobridge W/m2
08:09 71.1 °F 70.7 °F 29.90 in Calm     99% 0.04 in meteobridge W/m2
08:14 71.1 °F 70.7 °F 29.90 in Calm     99% 0.04 in meteobridge W/m2
08:19 71.1 °F 70.7 °F 29.90 in Calm     99% 0.04 in meteobridge W/m2
08:24 71.2 °F 70.9 °F 29.90 in Calm     99% 0.04 in meteobridge W/m2
08:29 71.1 °F 70.7 °F 29.90 in Calm     99% 0.04 in meteobridge W/m2
08:34 71.1 °F 70.7 °F 29.90 in Calm     99% 0.04 in meteobridge W/m2
08:39 71.2 °F 70.9 °F 29.90 in Calm     99% 0.05 in meteobridge W/m2
08:44 71.1 °F 70.7 °F 29.90 in Calm     99% 0.02 in meteobridge W/m2
08:48 71.2 °F 70.9 °F 29.90 in Calm     99% 0.02 in meteobridge W/m2
08:54 71.2 °F 70.9 °F 29.90 in Calm     99% 0.02 in meteobridge W/m2
08:59 71.2 °F 70.9 °F 29.90 in Calm     99% 0.03 in meteobridge W/m2
09:04 71.1 °F 70.7 °F 29.90 in Calm     99% 0.03 in meteobridge W/m2
09:09 71.2 °F 70.9 °F 29.90 in Calm     99% 0.03 in meteobridge W/m2
09:14 71.1 °F 70.7 °F 29.90 in Calm     99% 0.03 in meteobridge W/m2
09:19 71.2 °F 70.9 °F 29.90 in Calm     99% 0.03 in meteobridge W/m2
09:24 71.2 °F 70.9 °F 29.90 in Calm     99% 0.03 in meteobridge W/m2
09:29 71.2 °F 70.9 °F 29.90 in Calm     99% 0.03 in meteobridge W/m2
09:34 71.2 °F 70.9 °F 29.90 in Calm     99% 0.03 in meteobridge W/m2
09:39 71.2 °F 70.9 °F 29.90 in Calm     99% 0.01 in meteobridge W/m2
09:44 71.4 °F 71.1 °F 29.90 in Calm     99% 0.01 in meteobridge W/m2
09:49 71.4 °F 71.1 °F 29.90 in Calm     99% 0.01 in meteobridge W/m2
09:54 71.4 °F 71.1 °F 29.90 in Calm     99% 0.01 in meteobridge W/m2
09:59 71.6 °F 71.2 °F 29.90 in Calm   1 mph 99% 0 in meteobridge W/m2
10:04 71.6 °F 71.2 °F 29.90 in Calm   1 mph 99% 0 in meteobridge W/m2
10:09 71.4 °F 71.1 °F 29.90 in Calm   2 mph 99% 0 in meteobridge W/m2
10:14 71.4 °F 71.1 °F 29.90 in Calm     99% 0 in meteobridge W/m2
10:19 71.6 °F 71.1 °F 29.90 in Calm     98% 0 in meteobridge W/m2
10:24 71.4 °F 70.9 °F 29.90 in Calm     98% 0 in meteobridge W/m2
10:29 71.6 °F 71.1 °F 29.91 in Calm   1 mph 98% 0 in meteobridge W/m2
10:34 71.4 °F 70.9 °F 29.90 in Calm     98% 0 in meteobridge W/m2
EllijayWeather
Compliments of Weather Underground - 1.75 mb